Time;durP1;ratioP1;P1;durP2;ratioP2;P2;SDS_P1;SDS_P2;PMS_P1;PMS_P2;Temp;Humidity;BMP_temperature;BMP_pressure;BME280_temperature;BME280_humidity;BME280_pressure;Samples;Min_cycle;Max_cycle;Signal;HPM_P1;HPM_P2
2021/06/22 00:00:08;;;;;;;4.38;3.08;;;15.70;99.90;;;;;;4958851;28;20236;-80
2021/06/22 00:02:39;;;;;;;4.40;3.58;;;15.40;99.90;;;;;;4976045;28;20206;-81
2021/06/22 00:05:09;;;;;;;4.43;3.90;;;15.50;99.90;;;;;;4975891;28;20206;-81
2021/06/22 00:07:50;;;;;;;8.52;4.03;;;15.50;99.90;;;;;;4976409;28;20221;-81
2021/06/22 00:10:19;;;;;;;9.75;3.88;;;15.60;99.90;;;;;;4975179;28;20668;-81
2021/06/22 00:12:47;;;;;;;8.93;4.53;;;15.40;99.90;;;;;;4975713;28;20214;-81
2021/06/22 00:15:17;;;;;;;4.82;4.45;;;15.30;99.90;;;;;;4958613;28;20301;-81
2021/06/22 00:17:45;;;;;;;7.00;4.13;;;15.30;99.90;;;;;;4959008;28;20249;-80
2021/06/22 00:20:16;;;;;;;5.85;4.30;;;15.20;99.90;;;;;;4956013;28;20595;-81
2021/06/22 00:22:43;;;;;;;6.35;4.03;;;15.20;99.90;;;;;;4958558;28;20284;-81
2021/06/22 00:25:13;;;;;;;16.98;5.72;;;15.00;99.90;;;;;;4973119;28;20206;-81
2021/06/22 00:27:41;;;;;;;9.45;5.03;;;15.10;99.90;;;;;;4958319;28;20305;-81
2021/06/22 00:30:09;;;;;;;8.35;4.70;;;15.20;99.90;;;;;;4958158;28;20285;-80
2021/06/22 00:32:37;;;;;;;9.07;5.18;;;15.00;99.90;;;;;;4958359;28;20245;-81
2021/06/22 00:35:05;;;;;;;5.78;4.65;;;15.10;99.90;;;;;;4958876;28;20202;-80
2021/06/22 00:37:33;;;;;;;6.82;5.53;;;15.10;99.90;;;;;;4954294;28;20207;-80
2021/06/22 00:40:00;;;;;;;7.57;6.18;;;15.00;99.90;;;;;;4976042;28;20261;-81
2021/06/22 00:42:28;;;;;;;11.13;6.63;;;15.00;99.90;;;;;;4977288;28;20194;-81
2021/06/22 00:44:57;;;;;;;10.57;6.05;;;15.00;99.90;;;;;;4959507;28;20194;-81
2021/06/22 00:47:27;;;;;;;10.77;6.93;;;15.00;99.90;;;;;;4943273;28;20269;-81
2021/06/22 00:49:55;;;;;;;11.55;7.00;;;14.90;99.90;;;;;;4976253;28;20217;-81
2021/06/22 00:52:25;;;;;;;6.35;5.72;;;14.80;99.90;;;;;;4941491;28;20251;-81
2021/06/22 00:54:55;;;;;;;5.88;5.25;;;14.90;99.90;;;;;;4938407;28;20206;-81
2021/06/22 00:57:23;;;;;;;6.07;5.47;;;14.80;99.90;;;;;;4958628;28;20202;-81
2021/06/22 00:59:51;;;;;;;8.93;5.40;;;14.80;99.90;;;;;;4976032;28;20306;-81
2021/06/22 01:02:18;;;;;;;7.32;5.57;;;14.80;99.90;;;;;;4941044;28;20213;-81
2021/06/22 01:04:47;;;;;;;10.02;6.68;;;14.70;99.90;;;;;;4958578;28;20680;-81
2021/06/22 01:07:30;;;;;;;8.63;7.75;;;14.60;99.90;;;;;;4958551;28;20268;-82
2021/06/22 01:10:01;;;;;;;11.95;7.10;;;14.50;99.90;;;;;;4941183;28;20215;-81
2021/06/22 01:12:28;;;;;;;7.63;6.72;;;14.50;99.90;;;;;;4958007;28;20241;-81
2021/06/22 01:14:55;;;;;;;9.43;7.47;;;14.50;99.90;;;;;;4942580;28;20547;-81
2021/06/22 01:17:22;;;;;;;7.85;7.15;;;14.60;99.90;;;;;;4967381;28;20222;-80
2021/06/22 01:19:49;;;;;;;7.47;6.78;;;14.50;99.90;;;;;;4990806;28;20214;-81
2021/06/22 01:22:19;;;;;;;9.55;5.82;;;14.60;99.90;;;;;;4977737;28;20193;-81
2021/06/22 01:24:47;;;;;;;12.18;7.45;;;14.60;99.90;;;;;;4977353;28;20208;-81
2021/06/22 01:27:15;;;;;;;12.52;6.38;;;14.70;99.90;;;;;;4994553;28;20261;-80
2021/06/22 01:29:43;;;;;;;6.82;5.95;;;14.80;99.90;;;;;;4976990;28;20206;-80
2021/06/22 01:32:10;;;;;;;11.30;7.03;;;14.80;99.90;;;;;;4976863;28;20249;-80
2021/06/22 01:34:44;;;;;;;15.32;6.57;;;14.70;99.90;;;;;;4994249;28;20201;-81
2021/06/22 01:37:12;;;;;;;12.07;6.03;;;14.70;99.90;;;;;;4955955;28;20230;-81
2021/06/22 01:39:52;;;;;;;7.25;5.43;;;14.70;99.90;;;;;;4977691;28;20222;-81
2021/06/22 01:42:19;;;;;;;10.82;6.72;;;14.80;99.90;;;;;;4961677;28;20225;-81
2021/06/22 01:44:52;;;;;;;13.93;7.22;;;14.70;99.90;;;;;;4978043;28;20226;-81
2021/06/22 01:47:22;;;;;;;12.77;6.35;;;14.80;99.90;;;;;;4960743;28;20202;-81
2021/06/22 01:49:58;;;;;;;10.43;6.20;;;14.70;99.90;;;;;;4977197;28;20289;-81
2021/06/22 01:52:25;;;;;;;15.38;7.38;;;14.80;99.90;;;;;;4976858;28;20300;-81
2021/06/22 01:54:55;;;;;;;9.75;6.15;;;14.90;99.90;;;;;;4958597;28;20210;-82
2021/06/22 01:57:23;;;;;;;9.98;5.28;;;15.00;99.90;;;;;;4994997;28;20202;-81
2021/06/22 01:59:57;;;;;;;13.02;6.40;;;15.00;99.90;;;;;;4975032;28;20289;-81
2021/06/22 02:02:39;;;;;;;11.75;6.20;;;15.20;99.90;;;;;;4990031;28;20221;-82
2021/06/22 02:05:13;;;;;;;7.78;5.50;;;15.30;99.90;;;;;;4959972;28;20207;-82
2021/06/22 02:07:41;;;;;;;10.10;5.05;;;15.20;99.90;;;;;;4962227;28;20204;-82
2021/06/22 02:10:19;;;;;;;9.05;5.78;;;15.20;99.90;;;;;;4943813;28;20218;-82
2021/06/22 02:13:07;;;;;;;15.18;6.57;;;15.30;99.90;;;;;;4962511;28;20222;-81
2021/06/22 02:15:36;;;;;;;8.00;5.47;;;15.40;99.90;;;;;;4943829;28;20198;-81
2021/06/22 02:18:06;;;;;;;10.18;5.82;;;15.20;99.90;;;;;;4979504;28;20217;-82
2021/06/22 02:20:36;;;;;;;11.93;6.80;;;15.20;99.90;;;;;;4959703;28;20214;-82
2021/06/22 02:23:04;;;;;;;12.35;6.70;;;15.30;99.90;;;;;;4961156;28;20677;-81
2021/06/22 02:25:34;;;;;;;10.93;5.60;;;15.30;99.90;;;;;;4959437;28;20198;-81
2021/06/22 02:28:05;;;;;;;10.82;5.75;;;15.20;99.90;;;;;;4961473;28;20206;-81
2021/06/22 02:30:33;;;;;;;10.95;5.38;;;15.10;99.90;;;;;;4958621;28;20210;-80
2021/06/22 02:33:00;;;;;;;14.30;6.22;;;15.20;99.90;;;;;;4959571;28;20228;-81
2021/06/22 02:35:27;;;;;;;10.25;6.20;;;15.10;99.90;;;;;;4945166;28;20318;-82
2021/06/22 02:38:01;;;;;;;12.18;6.50;;;15.10;99.90;;;;;;4961450;28;20194;-81
2021/06/22 02:40:30;;;;;;;7.72;6.13;;;15.30;99.90;;;;;;4958275;28;20600;-81
2021/06/22 02:43:01;;;;;;;11.57;5.85;;;15.30;99.90;;;;;;4963478;28;20214;-81
2021/06/22 02:45:29;;;;;;;13.10;6.13;;;15.00;99.90;;;;;;4983085;28;20214;-81
2021/06/22 02:47:57;;;;;;;15.77;7.22;;;15.20;99.90;;;;;;4961200;28;20212;-80
2021/06/22 02:50:30;;;;;;;15.70;6.55;;;15.30;99.90;;;;;;4961078;28;20225;-80
2021/06/22 02:52:57;;;;;;;9.25;6.40;;;15.30;99.90;;;;;;4961376;28;20222;-80
2021/06/22 02:55:24;;;;;;;18.55;7.70;;;15.20;99.90;;;;;;4946348;28;20202;-82
2021/06/22 02:58:19;;;;;;;7.50;6.18;;;15.20;99.90;;;;;;4959696;28;20228;-82
2021/06/22 03:00:51;;;;;;;8.70;7.20;;;15.10;99.90;;;;;;4962345;28;20731;-82
2021/06/22 03:03:18;;;;;;;16.80;7.00;;;14.90;99.90;;;;;;4946675;28;20221;-82
2021/06/22 03:05:55;;;;;;;15.98;5.93;;;14.90;99.90;;;;;;4931279;28;20664;-82
2021/06/22 03:08:31;;;;;;;12.95;6.55;;;14.80;99.90;;;;;;4929209;29;20214;-82
2021/06/22 03:10:59;;;;;;;13.05;6.45;;;14.80;99.90;;;;;;4943804;29;20225;-82
2021/06/22 03:13:29;;;;;;;10.75;5.95;;;15.00;99.90;;;;;;4942702;29;20227;-82
2021/06/22 03:15:57;;;;;;;9.57;6.53;;;15.00;99.90;;;;;;4961861;29;20289;-83
2021/06/22 03:18:24;;;;;;;9.98;6.63;;;15.00;99.90;;;;;;4942631;29;20210;-83
2021/06/22 03:20:53;;;;;;;13.18;6.57;;;15.00;99.90;;;;;;4927328;29;20298;-82
2021/06/22 03:23:22;;;;;;;13.77;6.43;;;15.10;99.90;;;;;;4944619;29;20262;-82
2021/06/22 03:25:49;;;;;;;10.63;7.18;;;15.20;99.90;;;;;;4959933;29;20210;-83
2021/06/22 03:28:18;;;;;;;10.27;7.40;;;15.20;99.90;;;;;;4942138;29;20565;-82
2021/06/22 03:31:12;;;;;;;9.77;6.05;;;15.20;99.90;;;;;;4907332;29;20252;-82
2021/06/22 03:33:40;;;;;;;13.73;5.93;;;15.20;99.90;;;;;;4961220;29;20198;-83
2021/06/22 03:36:07;;;;;;;13.98;6.18;;;15.20;99.90;;;;;;4981249;28;20253;-83
2021/06/22 03:38:35;;;;;;;17.55;7.72;;;15.20;99.90;;;;;;4948718;28;20198;-83
2021/06/22 03:41:02;;;;;;;20.63;6.38;;;15.20;99.90;;;;;;4962998;28;20249;-82
2021/06/22 03:43:30;;;;;;;15.00;7.65;;;14.90;99.90;;;;;;4980204;28;20692;-83
2021/06/22 03:45:58;;;;;;;10.18;6.53;;;15.10;99.90;;;;;;4963988;28;20221;-82
2021/06/22 03:48:27;;;;;;;13.73;6.43;;;15.10;99.90;;;;;;4963492;28;20202;-83
2021/06/22 03:50:54;;;;;;;12.10;6.25;;;15.10;99.90;;;;;;4981877;28;20254;-83
2021/06/22 03:53:23;;;;;;;11.25;5.93;;;14.90;99.90;;;;;;4958487;28;20253;-82
2021/06/22 03:55:51;;;;;;;8.68;5.90;;;15.20;99.90;;;;;;4980399;28;20221;-81
2021/06/22 03:58:45;;;;;;;9.93;6.80;;;15.20;99.90;;;;;;4966224;28;20190;-81
2021/06/22 04:01:12;;;;;;;12.50;6.70;;;15.00;99.90;;;;;;4965968;28;20238;-81
2021/06/22 04:03:44;;;;;;;9.05;5.47;;;15.20;99.90;;;;;;4998411;28;20221;-81
2021/06/22 04:06:30;;;;;;;8.23;5.25;;;15.30;99.90;;;;;;4992760;28;20213;-82
2021/06/22 04:09:06;;;;;;;12.20;6.38;;;15.30;99.90;;;;;;4964881;28;20186;-81
2021/06/22 04:11:35;;;;;;;10.23;6.38;;;15.10;99.90;;;;;;4982009;28;20225;-81
2021/06/22 04:14:03;;;;;;;14.25;6.55;;;15.00;99.90;;;;;;4998681;28;20196;-81
2021/06/22 04:16:37;;;;;;;11.25;5.55;;;15.20;99.90;;;;;;4982276;28;20184;-83
2021/06/22 04:19:07;;;;;;;12.25;6.15;;;15.30;99.90;;;;;;4998478;28;20178;-81
2021/06/22 04:21:37;;;;;;;9.50;5.07;;;15.30;99.90;;;;;;4981701;28;20202;-82
2021/06/22 04:24:06;;;;;;;7.95;5.05;;;15.10;99.90;;;;;;4996023;28;20233;-82
2021/06/22 04:26:33;;;;;;;11.25;5.28;;;14.80;99.90;;;;;;4959807;28;20213;-83
2021/06/22 04:29:01;;;;;;;8.65;5.05;;;14.90;99.90;;;;;;4953030;28;20257;-80
2021/06/22 04:31:28;;;;;;;11.30;5.30;;;14.60;99.90;;;;;;4986917;28;20312;-82
2021/06/22 04:33:55;;;;;;;11.98;6.43;;;14.80;99.90;;;;;;4985902;28;20747;-82
2021/06/22 04:36:24;;;;;;;8.48;4.95;;;15.00;99.90;;;;;;4967361;28;20206;-83
2021/06/22 04:38:51;;;;;;;10.82;5.88;;;15.10;99.90;;;;;;4966620;28;20221;-82
2021/06/22 04:41:22;;;;;;;6.35;4.72;;;15.30;99.90;;;;;;4984957;28;20222;-82
2021/06/22 04:43:49;;;;;;;10.02;5.45;;;14.90;99.90;;;;;;4984657;28;20236;-82
2021/06/22 04:46:16;;;;;;;18.27;6.25;;;14.70;99.90;;;;;;4984042;28;20257;-81
2021/06/22 04:48:44;;;;;;;10.60;5.75;;;14.80;99.90;;;;;;4966010;28;20281;-82
2021/06/22 04:51:10;;;;;;;10.98;5.38;;;14.90;99.90;;;;;;4983075;28;20214;-81
2021/06/22 04:53:39;;;;;;;12.15;5.53;;;14.80;99.90;;;;;;4950281;28;20321;-82
2021/06/22 04:56:06;;;;;;;9.38;6.22;;;14.60;99.90;;;;;;4967113;28;20366;-82
2021/06/22 04:58:34;;;;;;;15.55;6.07;;;14.80;99.90;;;;;;4970799;28;20198;-83
2021/06/22 05:01:03;;;;;;;11.57;6.75;;;15.10;99.90;;;;;;4972748;28;20222;-82
2021/06/22 05:03:33;;;;;;;10.88;6.57;;;15.10;99.90;;;;;;4971866;28;20202;-83
2021/06/22 05:06:06;;;;;;;10.18;6.35;;;15.30;99.90;;;;;;4988034;28;20214;-82
2021/06/22 05:08:33;;;;;;;9.52;5.80;;;15.50;99.90;;;;;;4974576;28;20206;-82
2021/06/22 05:11:02;;;;;;;10.63;6.60;;;15.30;99.90;;;;;;4933309;29;20286;-82
2021/06/22 05:13:29;;;;;;;12.38;6.40;;;15.30;99.90;;;;;;4965532;29;20219;-82
2021/06/22 05:15:56;;;;;;;12.95;6.05;;;15.40;99.90;;;;;;4966836;29;20199;-83
2021/06/22 05:18:23;;;;;;;10.07;6.40;;;15.60;99.90;;;;;;4936078;29;20221;-83
2021/06/22 05:20:58;;;;;;;10.68;6.78;;;15.50;99.90;;;;;;4970326;29;20226;-82
2021/06/22 05:23:25;;;;;;;12.40;5.95;;;15.70;99.90;;;;;;4971060;29;20265;-82
2021/06/22 05:25:52;;;;;;;11.98;5.47;;;15.80;99.90;;;;;;4949681;29;20207;-82
2021/06/22 05:28:20;;;;;;;9.27;6.55;;;15.60;99.90;;;;;;4951243;29;20207;-83
2021/06/22 05:30:48;;;;;;;10.73;5.45;;;15.80;99.90;;;;;;4950768;29;20226;-83
2021/06/22 05:33:16;;;;;;;11.30;7.05;;;15.80;99.90;;;;;;4968984;29;20222;-83
2021/06/22 05:35:43;;;;;;;10.32;6.57;;;16.20;99.90;;;;;;4962350;29;20710;-81
2021/06/22 05:38:11;;;;;;;17.40;8.13;;;16.30;99.90;;;;;;4951262;29;20215;-83
2021/06/22 05:40:38;;;;;;;10.23;7.38;;;15.90;99.90;;;;;;4967007;29;20563;-83
2021/06/22 05:43:06;;;;;;;14.30;6.03;;;15.80;99.90;;;;;;4967742;29;20282;-82
2021/06/22 05:45:34;;;;;;;13.00;6.75;;;15.90;99.90;;;;;;4949155;29;20198;-83
2021/06/22 05:48:01;;;;;;;10.68;6.80;;;16.00;99.90;;;;;;4952538;29;20207;-82
2021/06/22 05:50:31;;;;;;;18.15;7.97;;;16.20;99.90;;;;;;4952357;29;20289;-83
2021/06/22 05:52:58;;;;;;;10.55;7.03;;;16.40;99.90;;;;;;4952635;29;20662;-81
2021/06/22 05:55:25;;;;;;;11.25;8.05;;;16.50;99.90;;;;;;4971726;29;20210;-83
2021/06/22 05:57:55;;;;;;;11.50;8.32;;;16.70;99.90;;;;;;4969598;29;20217;-82
2021/06/22 06:00:24;;;;;;;13.15;8.65;;;16.60;99.90;;;;;;4937265;29;20230;-82
2021/06/22 06:02:53;;;;;;;12.52;7.65;;;16.50;99.90;;;;;;4950432;29;20199;-82
2021/06/22 06:05:24;;;;;;;17.63;7.40;;;16.50;99.90;;;;;;4952099;29;20262;-83
2021/06/22 06:08:01;;;;;;;10.48;7.07;;;16.50;99.90;;;;;;4967362;28;20206;-83
2021/06/22 06:10:31;;;;;;;10.68;6.68;;;16.30;99.90;;;;;;4951760;29;20225;-83
2021/06/22 06:13:02;;;;;;;18.88;7.45;;;16.30;99.90;;;;;;4950412;29;20214;-83
2021/06/22 06:15:30;;;;;;;13.57;6.07;;;16.40;99.90;;;;;;4968389;29;20206;-83
2021/06/22 06:18:01;;;;;;;7.63;5.72;;;16.60;99.90;;;;;;4953299;29;20263;-82
2021/06/22 06:20:28;;;;;;;9.13;6.00;;;16.70;99.90;;;;;;4968689;29;20218;-80
2021/06/22 06:22:57;;;;;;;11.10;6.50;;;16.70;99.90;;;;;;4970045;29;20231;-81
2021/06/22 06:25:24;;;;;;;13.25;5.75;;;16.50;99.90;;;;;;4950625;29;20764;-81
2021/06/22 06:27:54;;;;;;;10.50;5.13;;;16.60;99.90;;;;;;4969310;29;20242;-83
2021/06/22 06:30:25;;;;;;;10.50;5.45;;;16.70;99.90;;;;;;4955842;28;20231;-81
2021/06/22 06:32:54;;;;;;;7.35;5.57;;;16.80;99.90;;;;;;4972933;28;20222;-81
2021/06/22 06:35:24;;;;;;;12.65;7.40;;;16.80;99.90;;;;;;4987327;28;20202;-81
2021/06/22 06:37:51;;;;;;;14.40;6.53;;;16.80;99.90;;;;;;4989326;28;20213;-82
2021/06/22 06:40:19;;;;;;;8.82;5.80;;;16.90;99.90;;;;;;4954369;28;20249;-81
2021/06/22 06:42:46;;;;;;;9.57;4.50;;;16.80;99.90;;;;;;4991619;28;20201;-82
2021/06/22 06:45:16;;;;;;;12.18;5.93;;;16.90;99.90;;;;;;4952939;28;20649;-81
2021/06/22 06:47:43;;;;;;;9.70;6.25;;;17.10;99.90;;;;;;4981007;28;20245;-82
2021/06/22 06:50:11;;;;;;;7.55;5.38;;;17.30;99.90;;;;;;4961201;28;20245;-82
2021/06/22 06:52:39;;;;;;;8.93;5.35;;;17.40;99.90;;;;;;4968402;28;20218;-82
2021/06/22 06:55:24;;;;;;;12.85;5.63;;;17.20;99.90;;;;;;4978128;28;20812;-81
2021/06/22 06:57:53;;;;;;;8.07;7.05;;;17.30;99.90;;;;;;4970433;28;20205;-81
2021/06/22 07:00:21;;;;;;;8.40;5.00;;;17.40;99.90;;;;;;4940877;29;20225;-81
2021/06/22 07:02:48;;;;;;;9.23;5.95;;;17.40;99.90;;;;;;4957170;29;20218;-82
2021/06/22 07:05:15;;;;;;;13.50;6.05;;;17.50;99.90;;;;;;4974349;28;20202;-81
2021/06/22 07:07:44;;;;;;;9.95;5.97;;;17.40;99.90;;;;;;4976888;28;20676;-81
2021/06/22 07:10:12;;;;;;;13.40;6.43;;;17.40;99.90;;;;;;4976946;28;20241;-81
2021/06/22 07:12:39;;;;;;;14.77;8.10;;;17.50;99.90;;;;;;4959082;28;20202;-82
2021/06/22 07:15:08;;;;;;;12.23;6.63;;;17.60;99.90;;;;;;4977583;28;20260;-82
2021/06/22 07:17:35;;;;;;;9.18;6.55;;;17.50;99.90;;;;;;4973438;28;20231;-81
2021/06/22 07:20:03;;;;;;;9.13;5.35;;;17.50;99.90;;;;;;4977157;28;20218;-81
2021/06/22 07:22:30;;;;;;;11.80;5.22;;;17.50;99.90;;;;;;4977393;28;20205;-82
2021/06/22 07:24:59;;;;;;;10.32;4.20;;;17.60;99.90;;;;;;4960286;28;20684;-82
2021/06/22 07:27:26;;;;;;;11.02;4.03;;;17.70;99.90;;;;;;4958042;29;20340;-82
2021/06/22 07:29:53;;;;;;;9.90;3.92;;;17.70;99.90;;;;;;4974466;28;20236;-82
2021/06/22 07:32:21;;;;;;;8.20;4.50;;;17.80;99.90;;;;;;4976826;28;20210;-82
2021/06/22 07:34:48;;;;;;;10.70;4.82;;;17.60;99.90;;;;;;4977409;28;20499;-81
2021/06/22 07:37:15;;;;;;;8.23;5.38;;;17.80;99.90;;;;;;4976123;28;20194;-83
2021/06/22 07:39:42;;;;;;;12.52;5.22;;;17.80;99.90;;;;;;4960723;28;20194;-82
2021/06/22 07:42:10;;;;;;;9.57;4.38;;;17.90;99.90;;;;;;4959185;28;20240;-82
2021/06/22 07:44:37;;;;;;;8.23;4.78;;;17.90;99.90;;;;;;4976207;28;20226;-83
2021/06/22 07:47:05;;;;;;;12.38;5.78;;;17.60;99.90;;;;;;4958882;28;20799;-82
2021/06/22 07:49:32;;;;;;;6.50;5.55;;;17.60;99.90;;;;;;4976152;28;20205;-82
2021/06/22 07:51:59;;;;;;;8.27;5.10;;;17.60;99.90;;;;;;4976682;28;20253;-82
2021/06/22 07:54:26;;;;;;;9.60;5.25;;;17.60;99.90;;;;;;4976307;28;20313;-82
2021/06/22 07:56:53;;;;;;;6.28;4.18;;;17.60;99.90;;;;;;4958030;28;20226;-82
2021/06/22 07:59:21;;;;;;;8.90;4.68;;;17.60;99.90;;;;;;4976467;28;20210;-83
2021/06/22 08:01:48;;;;;;;9.05;4.00;;;17.60;99.90;;;;;;4976403;28;20237;-81
2021/06/22 08:04:15;;;;;;;8.20;4.50;;;17.60;99.90;;;;;;4976996;28;20269;-81
2021/06/22 08:06:42;;;;;;;6.57;3.88;;;17.90;99.90;;;;;;4958519;28;20225;-81
2021/06/22 08:09:09;;;;;;;8.75;3.63;;;18.10;99.90;;;;;;4975900;28;20224;-81
2021/06/22 08:11:37;;;;;;;9.75;4.95;;;18.20;99.90;;;;;;4958539;28;20286;-81
2021/06/22 08:14:04;;;;;;;11.10;4.43;;;18.40;99.90;;;;;;4958348;28;20256;-81
2021/06/22 08:16:32;;;;;;;5.22;3.67;;;18.50;99.90;;;;;;4976220;28;20213;-83
2021/06/22 08:19:00;;;;;;;8.82;4.22;;;18.60;99.90;;;;;;4976262;28;20253;-81
2021/06/22 08:21:27;;;;;;;11.35;4.05;;;18.80;99.90;;;;;;4976536;28;20880;-81
2021/06/22 08:23:54;;;;;;;10.57;4.20;;;18.80;99.90;;;;;;4975937;28;20241;-81
2021/06/22 08:26:21;;;;;;;9.02;4.40;;;18.80;99.90;;;;;;4976488;28;20225;-81
2021/06/22 08:28:49;;;;;;;8.23;3.85;;;18.90;99.90;;;;;;4976063;28;20225;-80
2021/06/22 08:31:16;;;;;;;10.35;4.45;;;18.40;99.90;;;;;;4978358;28;20221;-81
2021/06/22 08:33:45;;;;;;;8.30;3.65;;;18.60;99.90;;;;;;4963295;28;20241;-81
2021/06/22 08:36:12;;;;;;;8.02;3.80;;;18.60;99.90;;;;;;4962731;28;20210;-81
2021/06/22 08:38:39;;;;;;;11.27;3.40;;;18.70;99.90;;;;;;4980434;28;20202;-81
2021/06/22 08:41:08;;;;;;;7.05;3.78;;;18.80;99.90;;;;;;4979521;28;20229;-81
2021/06/22 08:43:35;;;;;;;6.90;3.83;;;18.70;99.90;;;;;;4973476;28;20190;-81
2021/06/22 08:46:04;;;;;;;14.05;10.80;;;18.60;99.90;;;;;;4979753;28;20260;-81
2021/06/22 08:48:32;;;;;;;8.27;3.72;;;18.60;99.90;;;;;;4980274;28;20732;-82
2021/06/22 08:51:00;;;;;;;8.80;3.92;;;18.50;99.90;;;;;;4980222;28;20230;-81
2021/06/22 08:53:28;;;;;;;12.20;4.70;;;18.30;99.90;;;;;;4980139;28;20276;-81
2021/06/22 08:55:55;;;;;;;9.88;3.95;;;18.00;99.90;;;;;;4979880;28;20214;-81
2021/06/22 08:58:22;;;;;;;4.88;3.90;;;17.70;99.90;;;;;;4980312;28;20269;-81
2021/06/22 09:00:51;;;;;;;14.60;5.55;;;17.70;99.90;;;;;;4963594;28;20755;-81
2021/06/22 09:07:32;;;;;;;7.72;4.03;;;17.40;99.90;;;;;;4972712;28;20273;-79
2021/06/22 09:09:59;;;;;;;7.30;3.53;;;17.10;99.90;;;;;;4979920;28;20214;-81
2021/06/22 09:12:27;;;;;;;11.98;4.95;;;17.10;99.90;;;;;;4993946;28;20198;-81
2021/06/22 09:14:54;;;;;;;10.00;4.97;;;17.40;99.90;;;;;;4964045;28;20844;-80
2021/06/22 09:17:34;;;;;;;10.38;5.30;;;17.60;99.90;;;;;;4978326;28;20243;-81
2021/06/22 09:20:02;;;;;;;6.97;4.07;;;17.60;99.90;;;;;;4963825;28;20229;-80
2021/06/22 09:22:31;;;;;;;19.23;4.43;;;17.40;99.90;;;;;;4995288;28;20221;-81
2021/06/22 09:25:03;;;;;;;9.38;4.07;;;17.40;99.90;;;;;;4980630;28;20234;-80
2021/06/22 09:27:50;;;;;;;10.05;4.07;;;17.70;99.90;;;;;;4962215;28;20551;-81
2021/06/22 09:30:51;;;;;;;6.90;3.75;;;17.50;99.90;;;;;;4980148;28;20310;-81
2021/06/22 09:33:24;;;;;;;11.95;4.95;;;17.80;99.90;;;;;;4974868;28;20673;-81
2021/06/22 09:35:58;;;;;;;5.95;4.10;;;18.10;99.90;;;;;;4980841;28;20199;-81
2021/06/22 09:38:31;;;;;;;6.13;4.00;;;18.40;99.90;;;;;;4959002;28;20250;-79
2021/06/22 09:41:06;;;;;;;7.47;4.35;;;18.60;99.90;;;;;;4977917;28;20305;-81
2021/06/22 09:43:42;;;;;;;8.40;4.45;;;18.80;99.90;;;;;;4982555;28;20252;-81
2021/06/22 09:46:10;;;;;;;10.90;5.30;;;18.80;99.90;;;;;;4960090;28;20250;-81
2021/06/22 09:48:48;;;;;;;6.00;3.15;;;19.10;99.90;;;;;;4960585;28;20214;-80
2021/06/22 09:51:15;;;;;;;8.82;3.35;;;19.30;99.90;;;;;;4977051;28;20746;-80
2021/06/22 09:53:44;;;;;;;10.20;5.25;;;19.40;99.90;;;;;;4944124;28;20218;-80
2021/06/22 09:56:21;;;;;;;25.20;16.77;;;19.30;99.90;;;;;;4977416;28;20241;-81
2021/06/22 09:58:49;;;;;;;4.78;3.00;;;19.70;99.90;;;;;;4974662;28;20722;-81
2021/06/22 10:01:30;;;;;;;3.55;2.17;;;19.90;99.90;;;;;;4977530;28;20225;-80
2021/06/22 10:04:14;;;;;;;3.95;2.55;;;19.90;99.90;;;;;;4962879;28;20194;-81
2021/06/22 10:06:42;;;;;;;9.93;5.38;;;19.80;99.90;;;;;;4963536;28;20229;-81
2021/06/22 10:09:10;;;;;;;5.45;3.15;;;19.70;99.90;;;;;;4980456;28;20206;-80
2021/06/22 10:11:40;;;;;;;7.70;3.53;;;19.70;99.90;;;;;;4962697;28;20210;-80
2021/06/22 10:14:10;;;;;;;8.90;3.55;;;19.60;99.90;;;;;;4962479;28;20719;-80
2021/06/22 10:16:37;;;;;;;15.23;6.68;;;19.40;99.90;;;;;;4961516;28;20201;-80
2021/06/22 10:19:06;;;;;;;8.50;3.70;;;19.30;99.90;;;;;;4981955;28;20259;-80
2021/06/22 10:21:36;;;;;;;8.63;4.88;;;19.20;99.90;;;;;;4998944;28;20205;-80
2021/06/22 10:24:04;;;;;;;6.93;4.60;;;18.90;99.90;;;;;;5013423;28;20683;-81
2021/06/22 10:26:33;;;;;;;8.90;4.35;;;18.90;99.90;;;;;;4998718;28;20229;-81
2021/06/22 10:29:01;;;;;;;11.50;4.13;;;19.20;99.90;;;;;;4998895;28;20217;-81
2021/06/22 10:31:31;;;;;;;10.90;4.05;;;19.20;99.90;;;;;;4996682;28;20281;-81
2021/06/22 10:33:58;;;;;;;5.88;3.28;;;19.20;99.90;;;;;;4998155;28;20225;-81
2021/06/22 10:36:32;;;;;;;15.27;3.67;;;19.30;99.90;;;;;;4998155;28;20236;-81
2021/06/22 10:39:04;;;;;;;5.95;3.28;;;19.50;99.90;;;;;;4997056;28;20209;-81
2021/06/22 10:41:39;;;;;;;9.02;4.82;;;19.70;99.90;;;;;;4997711;28;20221;-80
2021/06/22 10:47:33;;;;;;;9.60;3.58;;;20.00;99.90;;;;;;4978155;28;20182;-78
2021/06/22 10:50:10;;;;;;;8.57;5.15;;;20.00;99.90;;;;;;4977177;28;20218;-81
2021/06/22 10:52:49;;;;;;;6.38;3.00;;;20.30;99.90;;;;;;4976759;28;20237;-81
2021/06/22 10:55:19;;;;;;;7.47;3.85;;;20.60;99.90;;;;;;4977462;28;20288;-81
2021/06/22 10:58:12;;;;;;;6.50;3.17;;;20.80;99.90;;;;;;4961681;28;20813;-81
2021/06/22 11:01:08;;;;;;;10.23;3.63;;;20.40;99.90;;;;;;4963508;28;20553;-81
2021/06/22 11:03:36;;;;;;;9.05;7.50;;;20.70;99.90;;;;;;4969014;28;20213;-80
2021/06/22 11:06:21;;;;;;;4.55;3.67;;;20.80;99.90;;;;;;4995545;28;20201;-81
2021/06/22 11:08:49;;;;;;;8.77;3.80;;;20.60;99.90;;;;;;4997065;28;20224;-81
2021/06/22 11:11:21;;;;;;;6.75;2.83;;;20.30;99.90;;;;;;4996034;28;20236;-81
2021/06/22 11:13:54;;;;;;;6.22;2.97;;;20.20;99.90;;;;;;4984940;28;20202;-82
2021/06/22 11:16:32;;;;;;;6.18;3.28;;;19.70;99.90;;;;;;4975363;28;20576;-81
2021/06/22 11:19:21;;;;;;;6.03;3.00;;;19.60;99.90;;;;;;4976103;28;20332;-81
2021/06/22 11:21:54;;;;;;;8.30;3.33;;;19.60;99.90;;;;;;4976559;28;20288;-81
2021/06/22 11:24:24;;;;;;;7.57;2.92;;;19.60;99.90;;;;;;4968859;28;20200;-80
2021/06/22 11:27:06;;;;;;;6.20;2.90;;;19.50;99.90;;;;;;4978892;28;20209;-81
2021/06/22 11:29:53;;;;;;;4.32;2.10;;;19.40;99.90;;;;;;4980819;28;20194;-81
2021/06/22 11:32:37;;;;;;;5.72;2.83;;;19.50;99.90;;;;;;4978225;28;20257;-81
2021/06/22 11:35:12;;;;;;;4.78;3.03;;;19.60;99.90;;;;;;4956176;29;20218;-82
2021/06/22 11:37:40;;;;;;;4.60;2.60;;;19.80;99.90;;;;;;4963618;28;20197;-82
2021/06/22 11:40:11;;;;;;;7.28;2.70;;;20.20;99.90;;;;;;4976060;28;20225;-81
2021/06/22 11:42:40;;;;;;;5.00;3.08;;;20.30;99.90;;;;;;4976223;28;20205;-81
2021/06/22 11:45:29;;;;;;;7.55;2.65;;;20.30;99.90;;;;;;4976225;28;20544;-81
2021/06/22 11:47:59;;;;;;;5.40;2.75;;;20.40;99.90;;;;;;4972783;28;20209;-82
2021/06/22 11:50:34;;;;;;;5.18;2.10;;;20.40;99.90;;;;;;4975333;28;20277;-82
2021/06/22 11:53:07;;;;;;;6.30;2.58;;;20.70;99.90;;;;;;4975538;28;20241;-82
2021/06/22 11:55:45;;;;;;;6.40;2.67;;;21.00;99.90;;;;;;4975563;28;20229;-81
2021/06/22 11:58:22;;;;;;;6.25;2.88;;;21.30;99.90;;;;;;4958753;28;20213;-81
2021/06/22 12:00:52;;;;;;;5.38;3.05;;;21.50;99.90;;;;;;4974852;28;20699;-81
2021/06/22 12:03:20;;;;;;;5.18;2.60;;;21.60;99.90;;;;;;4969300;28;20619;-81
2021/06/22 12:05:48;;;;;;;7.25;2.42;;;21.40;99.90;;;;;;4993633;28;20683;-82
2021/06/22 12:08:15;;;;;;;7.95;2.60;;;21.70;99.90;;;;;;4979377;28;20209;-81
2021/06/22 12:10:48;;;;;;;3.72;2.08;;;21.80;99.90;;;;;;4955373;29;20254;-83
2021/06/22 12:13:29;;;;;;;2.80;2.13;;;22.00;99.90;;;;;;4967336;28;20205;-81
2021/06/22 12:15:58;;;;;;;6.55;2.28;;;21.90;99.90;;;;;;4983239;28;20236;-81
2021/06/22 12:18:29;;;;;;;6.38;2.38;;;21.80;99.90;;;;;;4970023;28;20203;-82
2021/06/22 12:20:57;;;;;;;4.88;2.00;;;21.70;99.90;;;;;;4956265;29;20238;-82
2021/06/22 12:23:24;;;;;;;4.55;2.05;;;21.80;99.90;;;;;;4948711;28;20206;-82
2021/06/22 12:25:53;;;;;;;5.60;2.75;;;21.80;99.90;;;;;;4982966;28;20194;-81
2021/06/22 12:28:21;;;;;;;10.35;4.30;;;21.90;99.90;;;;;;4978692;28;20237;-81
2021/06/22 12:30:50;;;;;;;5.07;3.50;;;21.60;99.90;;;;;;4960145;28;20210;-82
2021/06/22 12:33:21;;;;;;;5.20;3.42;;;21.30;99.90;;;;;;4993373;28;20214;-82
2021/06/22 12:35:50;;;;;;;8.02;3.65;;;20.50;99.90;;;;;;4979798;28;20232;-81
2021/06/22 12:38:19;;;;;;;5.55;3.60;;;20.60;99.90;;;;;;4977581;28;20183;-81
2021/06/22 12:40:48;;;;;;;5.60;2.55;;;20.60;99.90;;;;;;4977520;28;20206;-82
2021/06/22 12:43:17;;;;;;;8.07;3.15;;;20.60;99.90;;;;;;4977596;28;20179;-81
2021/06/22 12:45:46;;;;;;;5.97;3.20;;;20.90;99.90;;;;;;4984450;28;20209;-80
2021/06/22 12:48:13;;;;;;;6.47;2.70;;;21.00;99.90;;;;;;4991654;28;20218;-79
2021/06/22 12:50:43;;;;;;;5.65;3.05;;;20.90;99.90;;;;;;4995360;28;20286;-79
2021/06/22 12:53:11;;;;;;;6.85;2.83;;;21.10;99.90;;;;;;4992431;28;20196;-81
2021/06/22 12:55:45;;;;;;;6.00;3.50;;;21.10;99.90;;;;;;4959912;28;20213;-82
2021/06/22 12:58:14;;;;;;;5.45;3.50;;;21.30;99.90;;;;;;4960433;28;20234;-82
2021/06/22 13:00:43;;;;;;;5.45;2.25;;;21.40;99.90;;;;;;4995235;28;20212;-82
2021/06/22 13:03:13;;;;;;;9.48;2.85;;;21.60;99.90;;;;;;4976705;28;20198;-83
2021/06/22 13:05:46;;;;;;;5.82;2.70;;;21.50;99.90;;;;;;4996706;28;20237;-82